Caledonia, Michigan
Current Conditions -  °F | °C
As of 9:53 AM on Thursday 30 Oct 2014 (Local Time) from KGRR Reporting Station
Overcast Overcast  
Wind Chill: 45°   Ceiling: 4400
Heat Index: 45°   Visibility: 10mi
Dew Point: 40°   Wind: 3mph
Humidity: 82%   Direction: 170°S
Pressure: 30.12"   Gusts: NA
Location:  42.79°N, 85.52°W
Report Text: KGRR 301353Z 17003KT 10SM OVC044 07/04 A3012 RMK AO2 SLP207 T00720044
Loading
Personal Weather Stations






























Interactive Weather Map
Tropical Storm Tracking
New forecast layout! Learn more

10-Day Weather Forecast

Advertisements
Track Severe Weather on mobile